sensor_id;sensor_type;location;lat;lon;timestamp;P1;durP1;ratioP1;P2;durP2;ratioP2
56537;SDS011;42435;53.292;6.000;2023-03-01T00:01:06;19.83;;;12.75;;
56537;SDS011;42435;53.292;6.000;2023-03-01T00:03:33;22.92;;;13.98;;
56537;SDS011;42435;53.292;6.000;2023-03-01T00:05:59;24.00;;;14.07;;
56537;SDS011;42435;53.292;6.000;2023-03-01T00:08:26;21.98;;;13.77;;
56537;SDS011;42435;53.292;6.000;2023-03-01T00:11:02;20.52;;;13.32;;
56537;SDS011;42435;53.292;6.000;2023-03-01T00:13:32;23.33;;;12.85;;
56537;SDS011;42435;53.292;6.000;2023-03-01T00:15:58;25.13;;;14.68;;
56537;SDS011;42435;53.292;6.000;2023-03-01T00:18:26;27.08;;;15.40;;
56537;SDS011;42435;53.292;6.000;2023-03-01T00:20:52;22.25;;;14.18;;
56537;SDS011;42435;53.292;6.000;2023-03-01T00:23:19;22.52;;;14.43;;
56537;SDS011;42435;53.292;6.000;2023-03-01T00:25:46;22.33;;;14.68;;
56537;SDS011;42435;53.292;6.000;2023-03-01T00:28:12;21.55;;;13.07;;
56537;SDS011;42435;53.292;6.000;2023-03-01T00:30:38;22.65;;;13.63;;
56537;SDS011;42435;53.292;6.000;2023-03-01T00:33:03;24.33;;;15.45;;
56537;SDS011;42435;53.292;6.000;2023-03-01T00:35:29;20.65;;;12.48;;
56537;SDS011;42435;53.292;6.000;2023-03-01T00:37:58;25.13;;;15.30;;
56537;SDS011;42435;53.292;6.000;2023-03-01T00:40:24;24.25;;;15.32;;
56537;SDS011;42435;53.292;6.000;2023-03-01T00:42:51;25.13;;;14.98;;
56537;SDS011;42435;53.292;6.000;2023-03-01T00:45:16;25.98;;;15.60;;
56537;SDS011;42435;53.292;6.000;2023-03-01T00:47:42;26.00;;;15.27;;
56537;SDS011;42435;53.292;6.000;2023-03-01T00:50:08;25.70;;;14.90;;
56537;SDS011;42435;53.292;6.000;2023-03-01T00:52:35;25.05;;;15.38;;
56537;SDS011;42435;53.292;6.000;2023-03-01T00:55:01;30.95;;;16.90;;
56537;SDS011;42435;53.292;6.000;2023-03-01T00:57:27;26.23;;;16.08;;
56537;SDS011;42435;53.292;6.000;2023-03-01T00:59:53;31.08;;;18.00;;
56537;SDS011;42435;53.292;6.000;2023-03-01T01:02:19;38.00;;;19.65;;
56537;SDS011;42435;53.292;6.000;2023-03-01T01:04:45;33.20;;;18.88;;
56537;SDS011;42435;53.292;6.000;2023-03-01T01:07:11;35.03;;;20.23;;
56537;SDS011;42435;53.292;6.000;2023-03-01T01:09:37;32.05;;;17.67;;
56537;SDS011;42435;53.292;6.000;2023-03-01T01:12:03;38.90;;;20.90;;
56537;SDS011;42435;53.292;6.000;2023-03-01T01:14:29;45.00;;;20.10;;
56537;SDS011;42435;53.292;6.000;2023-03-01T01:16:54;75.50;;;21.92;;
56537;SDS011;42435;53.292;6.000;2023-03-01T01:19:20;33.03;;;16.08;;
56537;SDS011;42435;53.292;6.000;2023-03-01T01:21:46;33.15;;;15.90;;
56537;SDS011;42435;53.292;6.000;2023-03-01T01:24:13;25.48;;;14.13;;
56537;SDS011;42435;53.292;6.000;2023-03-01T01:26:40;28.90;;;14.07;;
56537;SDS011;42435;53.292;6.000;2023-03-01T01:29:06;64.78;;;17.42;;
56537;SDS011;42435;53.292;6.000;2023-03-01T01:31:33;129.63;;;20.35;;
56537;SDS011;42435;53.292;6.000;2023-03-01T01:34:00;171.57;;;20.80;;
56537;SDS011;42435;53.292;6.000;2023-03-01T01:36:26;98.38;;;17.77;;
56537;SDS011;42435;53.292;6.000;2023-03-01T01:38:53;44.63;;;14.48;;
56537;SDS011;42435;53.292;6.000;2023-03-01T01:41:19;22.33;;;12.00;;
56537;SDS011;42435;53.292;6.000;2023-03-01T01:46:37;35.38;;;12.48;;
56537;SDS011;42435;53.292;6.000;2023-03-01T01:51:45;51.20;;;11.32;;
56537;SDS011;42435;53.292;6.000;2023-03-01T01:54:21;55.03;;;12.30;;
56537;SDS011;42435;53.292;6.000;2023-03-01T01:57:02;38.97;;;10.95;;
56537;SDS011;42435;53.292;6.000;2023-03-01T01:59:32;73.28;;;13.13;;
56537;SDS011;42435;53.292;6.000;2023-03-01T02:02:02;76.70;;;12.70;;
56537;SDS011;42435;53.292;6.000;2023-03-01T02:04:29;44.92;;;13.13;;
56537;SDS011;42435;53.292;6.000;2023-03-01T02:07:07;27.67;;;10.30;;
56537;SDS011;42435;53.292;6.000;2023-03-01T02:09:43;21.23;;;9.88;;
56537;SDS011;42435;53.292;6.000;2023-03-01T02:12:13;30.40;;;9.65;;
56537;SDS011;42435;53.292;6.000;2023-03-01T02:14:40;32.72;;;10.18;;
56537;SDS011;42435;53.292;6.000;2023-03-01T02:17:05;96.70;;;15.30;;
56537;SDS011;42435;53.292;6.000;2023-03-01T02:19:39;34.00;;;10.90;;
56537;SDS011;42435;53.292;6.000;2023-03-01T02:22:30;26.00;;;10.13;;
56537;SDS011;42435;53.292;6.000;2023-03-01T02:25:02;48.55;;;11.60;;
56537;SDS011;42435;53.292;6.000;2023-03-01T02:27:44;37.40;;;12.70;;
56537;SDS011;42435;53.292;6.000;2023-03-01T02:30:21;34.20;;;12.43;;
56537;SDS011;42435;53.292;6.000;2023-03-01T02:32:47;20.88;;;10.82;;
56537;SDS011;42435;53.292;6.000;2023-03-01T02:35:16;19.20;;;10.90;;
56537;SDS011;42435;53.292;6.000;2023-03-01T02:37:44;36.50;;;13.23;;
56537;SDS011;42435;53.292;6.000;2023-03-01T02:40:14;65.40;;;14.73;;
56537;SDS011;42435;53.292;6.000;2023-03-01T02:42:47;21.70;;;11.25;;
56537;SDS011;42435;53.292;6.000;2023-03-01T02:45:17;129.52;;;19.42;;
56537;SDS011;42435;53.292;6.000;2023-03-01T02:47:43;94.93;;;18.58;;
56537;SDS011;42435;53.292;6.000;2023-03-01T02:51:00;24.35;;;11.23;;
56537;SDS011;42435;53.292;6.000;2023-03-01T02:53:02;22.30;;;12.30;;
56537;SDS011;42435;53.292;6.000;2023-03-01T02:55:36;234.50;;;29.73;;
56537;SDS011;42435;53.292;6.000;2023-03-01T02:58:02;97.70;;;16.55;;
56537;SDS011;42435;53.292;6.000;2023-03-01T03:00:30;121.15;;;19.20;;
56537;SDS011;42435;53.292;6.000;2023-03-01T03:03:00;279.85;;;31.13;;
56537;SDS011;42435;53.292;6.000;2023-03-01T03:05:27;197.75;;;25.13;;
56537;SDS011;42435;53.292;6.000;2023-03-01T03:07:54;276.83;;;33.75;;
56537;SDS011;42435;53.292;6.000;2023-03-01T03:10:24;89.18;;;15.88;;
56537;SDS011;42435;53.292;6.000;2023-03-01T03:12:54;128.63;;;20.77;;
56537;SDS011;42435;53.292;6.000;2023-03-01T03:15:22;172.77;;;22.48;;
56537;SDS011;42435;53.292;6.000;2023-03-01T03:17:49;140.18;;;23.38;;
56537;SDS011;42435;53.292;6.000;2023-03-01T03:22:47;194.10;;;23.42;;
56537;SDS011;42435;53.292;6.000;2023-03-01T03:25:14;293.95;;;28.90;;
56537;SDS011;42435;53.292;6.000;2023-03-01T03:27:41;182.32;;;21.67;;
56537;SDS011;42435;53.292;6.000;2023-03-01T03:30:10;197.70;;;24.35;;
56537;SDS011;42435;53.292;6.000;2023-03-01T03:32:39;132.85;;;21.05;;
56537;SDS011;42435;53.292;6.000;2023-03-01T03:35:05;87.65;;;16.90;;
56537;SDS011;42435;53.292;6.000;2023-03-01T03:37:37;142.07;;;20.48;;
56537;SDS011;42435;53.292;6.000;2023-03-01T03:40:22;77.13;;;18.05;;
56537;SDS011;42435;53.292;6.000;2023-03-01T03:42:48;53.92;;;15.60;;
56537;SDS011;42435;53.292;6.000;2023-03-01T03:45:14;64.32;;;15.55;;
56537;SDS011;42435;53.292;6.000;2023-03-01T03:47:41;124.43;;;23.10;;
56537;SDS011;42435;53.292;6.000;2023-03-01T03:50:07;101.95;;;21.60;;
56537;SDS011;42435;53.292;6.000;2023-03-01T03:52:45;70.47;;;17.70;;
56537;SDS011;42435;53.292;6.000;2023-03-01T03:55:13;136.43;;;21.75;;
56537;SDS011;42435;53.292;6.000;2023-03-01T03:57:42;194.70;;;26.75;;
56537;SDS011;42435;53.292;6.000;2023-03-01T04:00:09;64.72;;;18.58;;
56537;SDS011;42435;53.292;6.000;2023-03-01T04:02:40;21.77;;;12.88;;
56537;SDS011;42435;53.292;6.000;2023-03-01T04:05:06;24.15;;;13.90;;
56537;SDS011;42435;53.292;6.000;2023-03-01T04:07:33;60.47;;;14.60;;
56537;SDS011;42435;53.292;6.000;2023-03-01T04:10:00;18.80;;;12.73;;
56537;SDS011;42435;53.292;6.000;2023-03-01T04:12:26;20.38;;;12.10;;
56537;SDS011;42435;53.292;6.000;2023-03-01T04:14:52;53.83;;;16.75;;
56537;SDS011;42435;53.292;6.000;2023-03-01T04:17:18;24.48;;;12.40;;
56537;SDS011;42435;53.292;6.000;2023-03-01T04:19:44;83.90;;;16.27;;
56537;SDS011;42435;53.292;6.000;2023-03-01T04:22:13;57.97;;;14.82;;
56537;SDS011;42435;53.292;6.000;2023-03-01T04:24:42;22.75;;;14.23;;
56537;SDS011;42435;53.292;6.000;2023-03-01T04:27:11;22.20;;;12.52;;
56537;SDS011;42435;53.292;6.000;2023-03-01T04:29:37;41.35;;;14.85;;
56537;SDS011;42435;53.292;6.000;2023-03-01T04:32:02;26.60;;;12.55;;
56537;SDS011;42435;53.292;6.000;2023-03-01T04:34:29;43.28;;;13.10;;
56537;SDS011;42435;53.292;6.000;2023-03-01T04:36:54;23.00;;;12.75;;
56537;SDS011;42435;53.292;6.000;2023-03-01T04:39:20;23.70;;;13.05;;
56537;SDS011;42435;53.292;6.000;2023-03-01T04:41:46;21.10;;;13.18;;
56537;SDS011;42435;53.292;6.000;2023-03-01T04:44:12;24.05;;;12.60;;
56537;SDS011;42435;53.292;6.000;2023-03-01T04:46:38;24.02;;;13.18;;
56537;SDS011;42435;53.292;6.000;2023-03-01T04:49:04;61.72;;;15.68;;
56537;SDS011;42435;53.292;6.000;2023-03-01T04:51:30;22.98;;;12.50;;
56537;SDS011;42435;53.292;6.000;2023-03-01T04:53:57;16.90;;;10.80;;
56537;SDS011;42435;53.292;6.000;2023-03-01T04:56:23;26.20;;;14.27;;
56537;SDS011;42435;53.292;6.000;2023-03-01T04:58:49;21.40;;;12.10;;
56537;SDS011;42435;53.292;6.000;2023-03-01T05:01:16;20.75;;;12.60;;
56537;SDS011;42435;53.292;6.000;2023-03-01T05:03:45;22.10;;;13.65;;
56537;SDS011;42435;53.292;6.000;2023-03-01T05:06:12;20.25;;;12.52;;
56537;SDS011;42435;53.292;6.000;2023-03-01T05:08:39;22.02;;;12.68;;
56537;SDS011;42435;53.292;6.000;2023-03-01T05:11:07;41.13;;;17.58;;
56537;SDS011;42435;53.292;6.000;2023-03-01T05:13:34;63.65;;;31.55;;
56537;SDS011;42435;53.292;6.000;2023-03-01T05:16:00;28.88;;;18.13;;
56537;SDS011;42435;53.292;6.000;2023-03-01T05:18:28;28.38;;;16.17;;
56537;SDS011;42435;53.292;6.000;2023-03-01T05:21:15;30.25;;;13.65;;
56537;SDS011;42435;53.292;6.000;2023-03-01T05:23:41;27.27;;;14.65;;
56537;SDS011;42435;53.292;6.000;2023-03-01T05:26:07;101.07;;;25.25;;
56537;SDS011;42435;53.292;6.000;2023-03-01T05:28:34;159.95;;;28.30;;
56537;SDS011;42435;53.292;6.000;2023-03-01T05:31:00;70.53;;;23.15;;
56537;SDS011;42435;53.292;6.000;2023-03-01T05:33:26;75.15;;;25.63;;
56537;SDS011;42435;53.292;6.000;2023-03-01T05:35:52;57.63;;;22.77;;
56537;SDS011;42435;53.292;6.000;2023-03-01T05:38:18;50.53;;;19.75;;
56537;SDS011;42435;53.292;6.000;2023-03-01T05:40:46;33.30;;;19.15;;
56537;SDS011;42435;53.292;6.000;2023-03-01T05:43:13;59.90;;;21.42;;
56537;SDS011;42435;53.292;6.000;2023-03-01T05:45:41;82.10;;;24.23;;
56537;SDS011;42435;53.292;6.000;2023-03-01T05:48:07;55.85;;;20.38;;
56537;SDS011;42435;53.292;6.000;2023-03-01T05:50:35;91.68;;;19.95;;
56537;SDS011;42435;53.292;6.000;2023-03-01T05:53:10;58.45;;;17.48;;
56537;SDS011;42435;53.292;6.000;2023-03-01T05:55:40;55.70;;;16.05;;
56537;SDS011;42435;53.292;6.000;2023-03-01T05:58:07;38.17;;;17.35;;
56537;SDS011;42435;53.292;6.000;2023-03-01T06:00:38;39.15;;;19.13;;
56537;SDS011;42435;53.292;6.000;2023-03-01T06:03:04;78.80;;;24.15;;
56537;SDS011;42435;53.292;6.000;2023-03-01T06:05:30;59.63;;;20.08;;
56537;SDS011;42435;53.292;6.000;2023-03-01T06:07:58;54.72;;;18.58;;
56537;SDS011;42435;53.292;6.000;2023-03-01T06:10:24;25.98;;;14.77;;
56537;SDS011;42435;53.292;6.000;2023-03-01T06:12:50;26.35;;;15.35;;
56537;SDS011;42435;53.292;6.000;2023-03-01T06:15:15;31.60;;;16.33;;
56537;SDS011;42435;53.292;6.000;2023-03-01T06:17:42;29.05;;;15.32;;
56537;SDS011;42435;53.292;6.000;2023-03-01T06:20:19;30.60;;;15.55;;
56537;SDS011;42435;53.292;6.000;2023-03-01T06:22:47;27.02;;;14.60;;
56537;SDS011;42435;53.292;6.000;2023-03-01T06:25:15;26.80;;;13.02;;
56537;SDS011;42435;53.292;6.000;2023-03-01T06:27:44;39.08;;;13.07;;
56537;SDS011;42435;53.292;6.000;2023-03-01T06:30:10;33.95;;;13.55;;
56537;SDS011;42435;53.292;6.000;2023-03-01T06:32:39;19.92;;;11.75;;
56537;SDS011;42435;53.292;6.000;2023-03-01T06:35:08;65.93;;;14.18;;
56537;SDS011;42435;53.292;6.000;2023-03-01T06:37:35;31.92;;;11.25;;
56537;SDS011;42435;53.292;6.000;2023-03-01T06:40:02;15.80;;;9.75;;
56537;SDS011;42435;53.292;6.000;2023-03-01T06:42:36;19.43;;;9.90;;
56537;SDS011;42435;53.292;6.000;2023-03-01T06:45:03;57.30;;;11.50;;
56537;SDS011;42435;53.292;6.000;2023-03-01T06:47:29;86.25;;;13.95;;
56537;SDS011;42435;53.292;6.000;2023-03-01T06:49:55;65.72;;;13.05;;
56537;SDS011;42435;53.292;6.000;2023-03-01T06:52:20;34.75;;;11.38;;
56537;SDS011;42435;53.292;6.000;2023-03-01T06:54:46;26.38;;;9.85;;
56537;SDS011;42435;53.292;6.000;2023-03-01T06:57:12;85.18;;;15.55;;
56537;SDS011;42435;53.292;6.000;2023-03-01T06:59:37;47.05;;;11.40;;
56537;SDS011;42435;53.292;6.000;2023-03-01T07:02:03;22.08;;;8.68;;
56537;SDS011;42435;53.292;6.000;2023-03-01T07:04:28;31.40;;;10.45;;
56537;SDS011;42435;53.292;6.000;2023-03-01T07:06:55;53.25;;;11.18;;
56537;SDS011;42435;53.292;6.000;2023-03-01T07:09:24;70.35;;;12.63;;
56537;SDS011;42435;53.292;6.000;2023-03-01T07:11:50;25.15;;;9.85;;
56537;SDS011;42435;53.292;6.000;2023-03-01T07:14:15;37.65;;;9.75;;
56537;SDS011;42435;53.292;6.000;2023-03-01T07:16:41;15.00;;;8.75;;
56537;SDS011;42435;53.292;6.000;2023-03-01T07:19:07;58.78;;;16.05;;
56537;SDS011;42435;53.292;6.000;2023-03-01T07:21:32;189.13;;;24.60;;
56537;SDS011;42435;53.292;6.000;2023-03-01T07:23:58;97.13;;;20.27;;
56537;SDS011;42435;53.292;6.000;2023-03-01T07:26:23;99.45;;;17.10;;
56537;SDS011;42435;53.292;6.000;2023-03-01T07:28:49;121.53;;;19.48;;
56537;SDS011;42435;53.292;6.000;2023-03-01T07:31:14;44.00;;;14.38;;
56537;SDS011;42435;53.292;6.000;2023-03-01T07:33:40;16.02;;;9.98;;
56537;SDS011;42435;53.292;6.000;2023-03-01T07:36:06;16.17;;;9.95;;
56537;SDS011;42435;53.292;6.000;2023-03-01T07:38:32;16.38;;;10.18;;
56537;SDS011;42435;53.292;6.000;2023-03-01T07:40:58;17.40;;;11.40;;
56537;SDS011;42435;53.292;6.000;2023-03-01T07:43:26;15.88;;;11.02;;
56537;SDS011;42435;53.292;6.000;2023-03-01T07:45:52;18.15;;;12.05;;
56537;SDS011;42435;53.292;6.000;2023-03-01T07:48:17;17.27;;;13.07;;
56537;SDS011;42435;53.292;6.000;2023-03-01T07:50:43;36.92;;;21.77;;
56537;SDS011;42435;53.292;6.000;2023-03-01T07:53:09;52.92;;;29.00;;
56537;SDS011;42435;53.292;6.000;2023-03-01T07:55:35;45.35;;;25.40;;
56537;SDS011;42435;53.292;6.000;2023-03-01T07:58:01;21.05;;;13.68;;
56537;SDS011;42435;53.292;6.000;2023-03-01T08:00:26;18.70;;;11.70;;
56537;SDS011;42435;53.292;6.000;2023-03-01T08:02:52;15.10;;;10.63;;
56537;SDS011;42435;53.292;6.000;2023-03-01T08:05:17;15.07;;;10.25;;
56537;SDS011;42435;53.292;6.000;2023-03-01T08:07:43;17.83;;;11.02;;
56537;SDS011;42435;53.292;6.000;2023-03-01T08:10:09;13.95;;;10.30;;
56537;SDS011;42435;53.292;6.000;2023-03-01T08:12:35;15.68;;;10.98;;
56537;SDS011;42435;53.292;6.000;2023-03-01T08:15:01;18.00;;;12.20;;
56537;SDS011;42435;53.292;6.000;2023-03-01T08:17:26;17.75;;;11.50;;
56537;SDS011;42435;53.292;6.000;2023-03-01T08:19:52;19.08;;;12.43;;
56537;SDS011;42435;53.292;6.000;2023-03-01T08:22:17;17.65;;;11.77;;
56537;SDS011;42435;53.292;6.000;2023-03-01T08:24:43;24.40;;;15.80;;
56537;SDS011;42435;53.292;6.000;2023-03-01T08:27:09;33.67;;;16.25;;
56537;SDS011;42435;53.292;6.000;2023-03-01T08:29:35;54.08;;;21.88;;
56537;SDS011;42435;53.292;6.000;2023-03-01T08:32:01;21.73;;;15.60;;
56537;SDS011;42435;53.292;6.000;2023-03-01T08:34:26;22.33;;;14.95;;
56537;SDS011;42435;53.292;6.000;2023-03-01T08:36:52;22.30;;;15.40;;
56537;SDS011;42435;53.292;6.000;2023-03-01T08:39:18;24.67;;;17.88;;
56537;SDS011;42435;53.292;6.000;2023-03-01T08:41:45;22.83;;;15.93;;
56537;SDS011;42435;53.292;6.000;2023-03-01T08:44:12;24.67;;;18.90;;
56537;SDS011;42435;53.292;6.000;2023-03-01T08:46:40;27.98;;;19.88;;
56537;SDS011;42435;53.292;6.000;2023-03-01T08:49:11;26.60;;;19.10;;
56537;SDS011;42435;53.292;6.000;2023-03-01T08:51:44;23.85;;;17.63;;
56537;SDS011;42435;53.292;6.000;2023-03-01T08:54:12;25.02;;;18.25;;
56537;SDS011;42435;53.292;6.000;2023-03-01T08:56:42;27.27;;;19.75;;
56537;SDS011;42435;53.292;6.000;2023-03-01T08:59:08;27.08;;;20.83;;
56537;SDS011;42435;53.292;6.000;2023-03-01T09:01:38;27.45;;;20.13;;
56537;SDS011;42435;53.292;6.000;2023-03-01T09:04:05;31.60;;;22.75;;
56537;SDS011;42435;53.292;6.000;2023-03-01T09:06:31;26.58;;;20.55;;
56537;SDS011;42435;53.292;6.000;2023-03-01T09:08:58;24.45;;;19.52;;
56537;SDS011;42435;53.292;6.000;2023-03-01T09:11:24;28.35;;;20.92;;
56537;SDS011;42435;53.292;6.000;2023-03-01T09:13:49;24.58;;;19.35;;
56537;SDS011;42435;53.292;6.000;2023-03-01T09:16:16;24.75;;;19.45;;
56537;SDS011;42435;53.292;6.000;2023-03-01T09:18:44;25.67;;;19.15;;
56537;SDS011;42435;53.292;6.000;2023-03-01T09:21:12;25.67;;;19.20;;
56537;SDS011;42435;53.292;6.000;2023-03-01T09:23:40;26.23;;;18.77;;
56537;SDS011;42435;53.292;6.000;2023-03-01T09:26:08;24.98;;;19.25;;
56537;SDS011;42435;53.292;6.000;2023-03-01T09:28:36;24.40;;;19.77;;
56537;SDS011;42435;53.292;6.000;2023-03-01T09:31:02;24.73;;;17.83;;
56537;SDS011;42435;53.292;6.000;2023-03-01T09:33:29;23.98;;;18.60;;
56537;SDS011;42435;53.292;6.000;2023-03-01T09:35:56;23.88;;;18.70;;
56537;SDS011;42435;53.292;6.000;2023-03-01T09:38:26;20.67;;;17.02;;
56537;SDS011;42435;53.292;6.000;2023-03-01T09:40:52;22.15;;;16.92;;
56537;SDS011;42435;53.292;6.000;2023-03-01T09:43:23;20.52;;;16.90;;
56537;SDS011;42435;53.292;6.000;2023-03-01T09:46:05;22.48;;;17.00;;
56537;SDS011;42435;53.292;6.000;2023-03-01T09:48:38;23.75;;;17.27;;
56537;SDS011;42435;53.292;6.000;2023-03-01T09:51:15;23.30;;;16.63;;
56537;SDS011;42435;53.292;6.000;2023-03-01T09:53:44;27.48;;;17.10;;
56537;SDS011;42435;53.292;6.000;2023-03-01T09:56:16;22.30;;;17.33;;
56537;SDS011;42435;53.292;6.000;2023-03-01T09:58:54;21.35;;;18.90;;
56537;SDS011;42435;53.292;6.000;2023-03-01T10:04:47;22.38;;;17.90;;
56537;SDS011;42435;53.292;6.000;2023-03-01T10:10:10;17.02;;;13.85;;
56537;SDS011;42435;53.292;6.000;2023-03-01T10:12:47;20.13;;;15.27;;
56537;SDS011;42435;53.292;6.000;2023-03-01T10:15:14;15.75;;;13.50;;
56537;SDS011;42435;53.292;6.000;2023-03-01T10:17:51;18.75;;;14.73;;
56537;SDS011;42435;53.292;6.000;2023-03-01T10:20:25;19.48;;;14.18;;
56537;SDS011;42435;53.292;6.000;2023-03-01T10:22:56;19.40;;;14.60;;
56537;SDS011;42435;53.292;6.000;2023-03-01T10:25:35;18.38;;;14.02;;
56537;SDS011;42435;53.292;6.000;2023-03-01T10:28:31;17.40;;;13.38;;
56537;SDS011;42435;53.292;6.000;2023-03-01T10:31:18;14.68;;;12.93;;
56537;SDS011;42435;53.292;6.000;2023-03-01T10:33:52;19.30;;;12.98;;
56537;SDS011;42435;53.292;6.000;2023-03-01T10:36:20;18.52;;;14.43;;
56537;SDS011;42435;53.292;6.000;2023-03-01T10:38:48;15.52;;;12.68;;
56537;SDS011;42435;53.292;6.000;2023-03-01T10:41:19;15.13;;;12.55;;
56537;SDS011;42435;53.292;6.000;2023-03-01T10:43:52;14.40;;;12.43;;
56537;SDS011;42435;53.292;6.000;2023-03-01T10:46:29;15.77;;;12.82;;
56537;SDS011;42435;53.292;6.000;2023-03-01T10:51:46;16.90;;;13.15;;
56537;SDS011;42435;53.292;6.000;2023-03-01T10:54:18;15.27;;;11.18;;
56537;SDS011;42435;53.292;6.000;2023-03-01T10:56:50;17.55;;;13.02;;
56537;SDS011;42435;53.292;6.000;2023-03-01T10:59:22;14.45;;;12.75;;
56537;SDS011;42435;53.292;6.000;2023-03-01T11:02:28;16.13;;;11.93;;
56537;SDS011;42435;53.292;6.000;2023-03-01T11:05:00;14.25;;;11.15;;
56537;SDS011;42435;53.292;6.000;2023-03-01T11:07:28;13.32;;;10.95;;
56537;SDS011;42435;53.292;6.000;2023-03-01T11:09:54;16.30;;;11.60;;
56537;SDS011;42435;53.292;6.000;2023-03-01T11:12:20;26.58;;;16.73;;
56537;SDS011;42435;53.292;6.000;2023-03-01T11:14:55;18.75;;;12.98;;
56537;SDS011;42435;53.292;6.000;2023-03-01T11:17:29;18.73;;;12.80;;
56537;SDS011;42435;53.292;6.000;2023-03-01T11:20:00;17.67;;;13.20;;
56537;SDS011;42435;53.292;6.000;2023-03-01T11:22:38;18.75;;;13.75;;
56537;SDS011;42435;53.292;6.000;2023-03-01T11:25:17;19.67;;;15.05;;
56537;SDS011;42435;53.292;6.000;2023-03-01T11:27:48;17.65;;;13.77;;
56537;SDS011;42435;53.292;6.000;2023-03-01T11:30:24;16.88;;;13.25;;
56537;SDS011;42435;53.292;6.000;2023-03-01T11:35:41;17.20;;;12.93;;
56537;SDS011;42435;53.292;6.000;2023-03-01T11:38:20;19.15;;;13.55;;
56537;SDS011;42435;53.292;6.000;2023-03-01T11:46:36;15.27;;;11.68;;
56537;SDS011;42435;53.292;6.000;2023-03-01T11:52:00;15.05;;;11.55;;
56537;SDS011;42435;53.292;6.000;2023-03-01T12:20:06;16.98;;;11.38;;
56537;SDS011;42435;53.292;6.000;2023-03-01T12:25:58;16.70;;;11.85;;
56537;SDS011;42435;53.292;6.000;2023-03-01T12:28:49;17.90;;;12.02;;
56537;SDS011;42435;53.292;6.000;2023-03-01T12:31:32;16.77;;;11.50;;
56537;SDS011;42435;53.292;6.000;2023-03-01T12:34:37;16.35;;;11.93;;
56537;SDS011;42435;53.292;6.000;2023-03-01T12:43:22;16.10;;;12.15;;
56537;SDS011;42435;53.292;6.000;2023-03-01T12:49:10;15.00;;;10.77;;
56537;SDS011;42435;53.292;6.000;2023-03-01T12:51:47;16.40;;;10.65;;
56537;SDS011;42435;53.292;6.000;2023-03-01T12:54:20;14.50;;;11.18;;
56537;SDS011;42435;53.292;6.000;2023-03-01T12:56:53;17.08;;;11.45;;
56537;SDS011;42435;53.292;6.000;2023-03-01T13:02:28;16.45;;;11.57;;
56537;SDS011;42435;53.292;6.000;2023-03-01T13:08:10;15.00;;;10.43;;
56537;SDS011;42435;53.292;6.000;2023-03-01T13:10:41;18.50;;;11.93;;
56537;SDS011;42435;53.292;6.000;2023-03-01T13:13:18;14.25;;;10.75;;
56537;SDS011;42435;53.292;6.000;2023-03-01T13:15:45;16.25;;;10.65;;
56537;SDS011;42435;53.292;6.000;2023-03-01T13:30:57;14.40;;;10.77;;
56537;SDS011;42435;53.292;6.000;2023-03-01T13:35:51;14.55;;;11.07;;
56537;SDS011;42435;53.292;6.000;2023-03-01T13:41:14;17.38;;;11.77;;
56537;SDS011;42435;53.292;6.000;2023-03-01T13:43:42;16.65;;;12.40;;
56537;SDS011;42435;53.292;6.000;2023-03-01T13:46:18;17.27;;;11.20;;
56537;SDS011;42435;53.292;6.000;2023-03-01T13:48:47;16.20;;;11.88;;
56537;SDS011;42435;53.292;6.000;2023-03-01T13:51:16;15.57;;;10.32;;
56537;SDS011;42435;53.292;6.000;2023-03-01T13:53:50;14.48;;;10.45;;
56537;SDS011;42435;53.292;6.000;2023-03-01T13:56:19;14.63;;;10.68;;
56537;SDS011;42435;53.292;6.000;2023-03-01T13:58:51;16.63;;;11.27;;
56537;SDS011;42435;53.292;6.000;2023-03-01T14:01:21;15.32;;;11.38;;
56537;SDS011;42435;53.292;6.000;2023-03-01T14:03:49;18.27;;;11.50;;
56537;SDS011;42435;53.292;6.000;2023-03-01T14:06:17;17.00;;;10.70;;
56537;SDS011;42435;53.292;6.000;2023-03-01T14:08:47;15.13;;;10.57;;
56537;SDS011;42435;53.292;6.000;2023-03-01T14:14:19;14.82;;;9.60;;
56537;SDS011;42435;53.292;6.000;2023-03-01T14:16:56;14.75;;;9.50;;
56537;SDS011;42435;53.292;6.000;2023-03-01T14:19:36;15.30;;;10.05;;
56537;SDS011;42435;53.292;6.000;2023-03-01T14:24:49;13.55;;;9.68;;
56537;SDS011;42435;53.292;6.000;2023-03-01T14:27:23;13.13;;;9.50;;
56537;SDS011;42435;53.292;6.000;2023-03-01T14:29:59;12.30;;;8.63;;
56537;SDS011;42435;53.292;6.000;2023-03-01T14:32:27;13.25;;;8.80;;
56537;SDS011;42435;53.292;6.000;2023-03-01T14:34:55;10.55;;;8.23;;
56537;SDS011;42435;53.292;6.000;2023-03-01T14:37:24;12.73;;;8.93;;
56537;SDS011;42435;53.292;6.000;2023-03-01T14:39:54;13.52;;;9.65;;
56537;SDS011;42435;53.292;6.000;2023-03-01T14:42:23;12.18;;;8.77;;
56537;SDS011;42435;53.292;6.000;2023-03-01T14:44:52;12.23;;;8.55;;
56537;SDS011;42435;53.292;6.000;2023-03-01T14:47:25;11.38;;;8.77;;
56537;SDS011;42435;53.292;6.000;2023-03-01T14:49:56;12.30;;;8.73;;
56537;SDS011;42435;53.292;6.000;2023-03-01T14:52:34;13.23;;;8.73;;
56537;SDS011;42435;53.292;6.000;2023-03-01T14:55:14;11.68;;;8.68;;
56537;SDS011;42435;53.292;6.000;2023-03-01T14:57:47;12.50;;;8.73;;
56537;SDS011;42435;53.292;6.000;2023-03-01T15:00:21;13.20;;;9.80;;
56537;SDS011;42435;53.292;6.000;2023-03-01T15:02:52;13.55;;;9.20;;
56537;SDS011;42435;53.292;6.000;2023-03-01T15:05:23;14.60;;;9.13;;
56537;SDS011;42435;53.292;6.000;2023-03-01T15:07:53;14.00;;;9.57;;
56537;SDS011;42435;53.292;6.000;2023-03-01T15:10:28;15.45;;;10.57;;
56537;SDS011;42435;53.292;6.000;2023-03-01T15:12:56;13.15;;;9.65;;
56537;SDS011;42435;53.292;6.000;2023-03-01T15:15:36;13.25;;;9.30;;
56537;SDS011;42435;53.292;6.000;2023-03-01T15:18:12;13.48;;;9.43;;
56537;SDS011;42435;53.292;6.000;2023-03-01T15:20:45;16.75;;;10.68;;
56537;SDS011;42435;53.292;6.000;2023-03-01T15:25:51;13.48;;;9.95;;
56537;SDS011;42435;53.292;6.000;2023-03-01T15:28:23;16.33;;;10.02;;
56537;SDS011;42435;53.292;6.000;2023-03-01T15:33:47;17.52;;;11.73;;
56537;SDS011;42435;53.292;6.000;2023-03-01T15:36:32;19.40;;;12.75;;
56537;SDS011;42435;53.292;6.000;2023-03-01T15:39:23;18.00;;;12.52;;
56537;SDS011;42435;53.292;6.000;2023-03-01T15:42:02;21.13;;;13.10;;
56537;SDS011;42435;53.292;6.000;2023-03-01T15:44:41;19.75;;;13.25;;
56537;SDS011;42435;53.292;6.000;2023-03-01T15:47:29;21.08;;;13.40;;
56537;SDS011;42435;53.292;6.000;2023-03-01T15:49:55;19.17;;;12.65;;
56537;SDS011;42435;53.292;6.000;2023-03-01T15:52:33;23.15;;;14.32;;
56537;SDS011;42435;53.292;6.000;2023-03-01T15:55:06;23.35;;;14.65;;
56537;SDS011;42435;53.292;6.000;2023-03-01T15:57:40;25.23;;;14.30;;
56537;SDS011;42435;53.292;6.000;2023-03-01T16:00:06;26.67;;;13.98;;
56537;SDS011;42435;53.292;6.000;2023-03-01T16:02:38;25.55;;;15.27;;
56537;SDS011;42435;53.292;6.000;2023-03-01T16:05:04;25.13;;;15.15;;
56537;SDS011;42435;53.292;6.000;2023-03-01T16:07:31;24.42;;;15.45;;
56537;SDS011;42435;53.292;6.000;2023-03-01T16:09:56;21.13;;;13.52;;
56537;SDS011;42435;53.292;6.000;2023-03-01T16:12:22;28.17;;;14.52;;
56537;SDS011;42435;53.292;6.000;2023-03-01T16:14:49;22.80;;;13.57;;
56537;SDS011;42435;53.292;6.000;2023-03-01T16:17:15;22.25;;;14.13;;